TimeCST,TemperatureF,Dew PointF,Humidity,Sea Level PressureIn,VisibilityMPH,Wind Direction,Wind SpeedMPH,Gust SpeedMPH,PrecipitationIn,Events,Conditions,WindDirDegrees,DateUTC
12:53 AM,33.1,33.1,100,30.13,8.0,Calm,Calm,-,N/A,,Clear,0,2012-11-06 06:53:00
1:53 AM,33.1,32.0,96,30.12,9.0,Calm,Calm,-,N/A,,Clear,0,2012-11-06 07:53:00
3:53 AM,30.9,30.0,96,30.12,5.0,Calm,Calm,-,N/A,,Clear,0,2012-11-06 09:53:00
4:29 AM,28.4,28.4,100,30.12,1.5,Calm,Calm,-,N/A,,Clear,0,2012-11-06 10:29:00
4:46 AM,30.2,28.4,93,30.12,5.0,Calm,Calm,-,N/A,,Clear,0,2012-11-06 10:46:00
4:53 AM,28.9,28.9,100,30.12,6.0,Calm,Calm,-,N/A,,Clear,0,2012-11-06 10:53:00
5:53 AM,30.0,28.9,96,30.12,5.0,Calm,Calm,-,N/A,,Clear,0,2012-11-06 11:53:00
6:53 AM,30.9,30.0,96,30.13,4.0,Calm,Calm,-,N/A,,Scattered Clouds,0,2012-11-06 12:53:00
7:53 AM,35.1,34.0,96,30.15,7.0,Calm,Calm,-,N/A,,Partly Cloudy,0,2012-11-06 13:53:00
8:53 AM,44.1,41.0,89,30.12,10.0,SW,10.4,-,N/A,,Clear,220,2012-11-06 14:53:00
9:53 AM,51.1,39.9,66,30.12,10.0,SW,6.9,-,N/A,,Partly Cloudy,220,2012-11-06 15:53:00
10:53 AM,57.0,39.9,53,30.10,10.0,Variable,6.9,-,N/A,,Clear,0,2012-11-06 16:53:00
11:53 AM,61.0,39.0,44,30.09,10.0,Variable,4.6,-,N/A,,Partly Cloudy,0,2012-11-06 17:53:00
12:53 PM,64.9,37.9,37,30.06,10.0,Variable,5.8,16.1,N/A,,Clear,0,2012-11-06 18:53:00
1:53 PM,66.9,37.0,33,30.05,10.0,Variable,4.6,-,N/A,,Clear,0,2012-11-06 19:53:00
2:53 PM,69.1,36.0,30,30.04,10.0,Calm,Calm,-,N/A,,Clear,0,2012-11-06 20:53:00
3:53 PM,66.0,33.1,29,30.05,10.0,Variable,4.6,-,N/A,,Clear,0,2012-11-06 21:53:00
4:53 PM,62.1,32.0,32,30.05,10.0,Calm,Calm,-,N/A,,Clear,0,2012-11-06 22:53:00
5:53 PM,53.1,30.9,43,30.07,10.0,Calm,Calm,-,N/A,,Clear,0,2012-11-06 23:53:00
6:53 PM,51.1,30.9,46,30.10,10.0,Calm,Calm,-,N/A,,Clear,0,2012-11-07 00:53:00
7:53 PM,48.0,30.9,52,30.11,10.0,Calm,Calm,-,N/A,,Clear,0,2012-11-07 01:53:00
8:53 PM,39.0,30.9,73,30.13,10.0,Calm,Calm,-,N/A,,Clear,0,2012-11-07 02:53:00
9:53 PM,37.0,30.9,79,30.13,10.0,Calm,Calm,-,N/A,,Clear,0,2012-11-07 03:53:00
10:53 PM,39.0,30.9,73,30.13,10.0,Calm,Calm,-,N/A,,Clear,0,2012-11-07 04:53:00
11:53 PM,35.1,28.9,78,30.13,10.0,Calm,Calm,-,N/A,,Clear,0,2012-11-07 05:53:00